Rochester, Vermont
Current Conditions -  °F | °C
As of 10:35 AM on Thursday 23 Oct 2014 (Local Time) from K6B0 Reporting Station
Overcast Overcast  
Wind Chill: 38°   Ceiling: 1200
Heat Index: 44°   Visibility: 10mi
Dew Point: 41°   Wind: 9mph
Humidity: 90%   Direction: 360°N
Pressure: 29.92"   Gusts: 21mph
Location:  43.87°N, 72.81°W
Report Text: K6B0 231435Z AUTO 36008G18KT 10SM OVC012 06/05 A2992 RMK AO2 T00640048
Loading
Personal Weather Stations






























Interactive Weather Map
Tropical Storm Tracking
New forecast layout! Learn more

10-Day Weather Forecast

Advertisements
Track Severe Weather on mobile